Time;durP1;ratioP1;P1;durP2;ratioP2;P2;SDS_P1;SDS_P2;PMS_P1;PMS_P2;Temp;Humidity;BMP_temperature;BMP_pressure;BME280_temperature;BME280_humidity;BME280_pressure;Samples;Min_cycle;Max_cycle;Signal;HPM_P1;HPM_P2
2022/09/19 00:01:29;;;;;;;;;;;;;;;12.76;58.48;98965.59;5053740;28;19921;-49
2022/09/19 00:04:02;;;;;;;;;;;;;;;12.45;58.20;98968.91;5053765;28;19927;-49
2022/09/19 00:06:29;;;;;;;;;;;;;;;12.02;58.61;98965.91;5071986;28;19920;-48
2022/09/19 00:08:55;;;;;;;;;;;;;;;11.89;59.80;98967.53;5053700;28;19960;-50
2022/09/19 00:11:21;;;;;;;;;;;;;;;12.03;59.68;98962.25;5053692;28;19916;-49
2022/09/19 00:13:48;;;;;;;;;;;;;;;12.02;59.78;98958.03;5071714;28;20278;-50
2022/09/19 00:16:18;;;;;;;;;;;;;;;11.69;58.94;98961.41;5053672;28;19962;-49
2022/09/19 00:18:44;;;;;;;;;;;;;;;11.21;59.52;98957.06;5053775;28;19923;-49
2022/09/19 00:21:10;;;;;;;;;;;;;;;10.88;60.38;98967.44;5071571;28;19916;-49
2022/09/19 00:26:20;;;;;;;;;;;;;;;10.99;60.30;98959.81;5071509;28;19963;-49
2022/09/19 00:28:46;;;;;;;;;;;;;;;10.99;59.94;98962.44;5071442;28;19981;-49
2022/09/19 00:31:17;;;;;;;;;;;;;;;11.22;60.65;98953.44;5071417;28;19962;-49
2022/09/19 00:33:44;;;;;;;;;;;;;;;11.36;59.92;98962.16;5071479;28;19924;-49
2022/09/19 00:36:10;;;;;;;;;;;;;;;11.20;59.62;98953.63;5055533;28;19921;-49
2022/09/19 00:38:36;;;;;;;;;;;;;;;11.16;60.25;98954.22;5075001;28;20390;-50
2022/09/19 00:41:01;;;;;;;;;;;;;;;11.35;60.16;98950.84;5040349;28;19916;-50
2022/09/19 00:43:43;;;;;;;;;;;;;;;11.59;61.72;98944.22;5074954;28;19946;-49
2022/09/19 00:46:09;;;;;;;;;;;;;;;11.57;63.13;98934.91;5056871;28;19916;-49
2022/09/19 00:48:35;;;;;;;;;;;;;;;11.31;63.29;98936.47;5074923;28;20057;-50
2022/09/19 00:51:04;;;;;;;;;;;;;;;10.99;64.28;98933.56;5074808;28;19974;-49
2022/09/19 00:53:31;;;;;;;;;;;;;;;10.86;65.63;98933.50;5057433;28;19923;-50
2022/09/19 00:55:57;;;;;;;;;;;;;;;10.43;65.71;98931.06;5074747;28;20477;-49
2022/09/19 00:58:26;;;;;;;;;;;;;;;9.95;66.73;98938.78;5056725;28;20283;-49
2022/09/19 01:00:52;;;;;;;;;;;;;;;9.87;67.50;98936.31;5056680;28;20298;-49
2022/09/19 01:03:18;;;;;;;;;;;;;;;9.67;67.91;98934.31;5074556;28;19920;-49
2022/09/19 01:05:55;;;;;;;;;;;;;;;9.37;68.01;98937.06;5074484;28;19924;-48
2022/09/19 01:08:30;;;;;;;;;;;;;;;9.13;68.95;98938.22;5074557;28;19924;-49
2022/09/19 01:11:10;;;;;;;;;;;;;;;9.17;69.43;98936.03;5074428;28;19923;-49
2022/09/19 01:13:46;;;;;;;;;;;;;;;9.50;69.77;98925.91;5074456;28;19970;-49
2022/09/19 01:16:20;;;;;;;;;;;;;;;9.99;69.95;98919.84;5074415;28;19917;-49
2022/09/19 01:18:49;;;;;;;;;;;;;;;10.47;68.98;98926.25;5056478;28;20322;-49
2022/09/19 01:21:40;;;;;;;;;;;;;;;10.63;67.92;98922.50;5074259;28;19916;-49
2022/09/19 01:24:20;;;;;;;;;;;;;;;10.73;67.84;98915.09;5056305;28;19939;-49
2022/09/19 01:26:51;;;;;;;;;;;;;;;10.76;67.74;98920.72;5074168;28;19917;-49
2022/09/19 01:29:22;;;;;;;;;;;;;;;10.72;67.51;98918.69;5073866;28;19924;-49
2022/09/19 01:31:57;;;;;;;;;;;;;;;10.66;67.40;98917.66;5074077;28;20003;-50
2022/09/19 01:34:38;;;;;;;;;;;;;;;10.59;66.85;98922.09;5074005;28;20313;-49
2022/09/19 01:37:07;;;;;;;;;;;;;;;10.32;66.69;98924.56;5055931;28;20003;-48
2022/09/19 01:39:36;;;;;;;;;;;;;;;10.44;67.87;98922.19;5055943;28;19917;-50
2022/09/19 01:42:02;;;;;;;;;;;;;;;10.65;67.51;98918.69;5073900;28;20329;-48
2022/09/19 01:44:28;;;;;;;;;;;;;;;10.59;66.83;98922.88;5055977;28;19935;-49
2022/09/19 01:46:57;;;;;;;;;;;;;;;10.53;67.07;98915.78;5055719;28;19959;-49
2022/09/19 01:49:25;;;;;;;;;;;;;;;10.34;66.66;98914.69;5073655;28;19923;-49
2022/09/19 01:51:55;;;;;;;;;;;;;;;10.06;66.85;98919.94;5055674;28;19928;-49
2022/09/19 01:54:21;;;;;;;;;;;;;;;10.07;67.88;98915.47;5055769;28;19924;-49
2022/09/19 01:56:53;;;;;;;;;;;;;;;10.37;68.31;98913.47;5073502;28;19920;-49
2022/09/19 01:59:20;;;;;;;;;;;;;;;10.47;67.66;98921.00;5055573;28;19916;-49
2022/09/19 02:01:49;;;;;;;;;;;;;;;10.69;68.10;98916.47;5073503;28;20011;-49
2022/09/19 02:04:21;;;;;;;;;;;;;;;11.12;67.93;98917.03;5073444;28;20011;-49
2022/09/19 02:06:58;;;;;;;;;;;;;;;11.45;66.97;98918.94;5073242;28;19920;-49
2022/09/19 02:09:27;;;;;;;;;;;;;;;11.70;66.96;98921.78;5073385;28;19917;-48
2022/09/19 02:11:53;;;;;;;;;;;;;;;11.72;66.70;98922.38;5073276;28;19962;-49
2022/09/19 02:14:22;;;;;;;;;;;;;;;11.26;64.32;98923.13;5073199;28;19925;-49
2022/09/19 02:17:02;;;;;;;;;;;;;;;10.68;65.56;98938.47;5073156;28;19920;-49
2022/09/19 02:19:33;;;;;;;;;;;;;;;10.20;66.11;98933.91;5073189;28;20279;-49
2022/09/19 02:22:01;;;;;;;;;;;;;;;9.80;66.34;98944.13;5073063;28;19924;-48
2022/09/19 02:24:33;;;;;;;;;;;;;;;9.58;67.31;98944.13;5055063;28;19920;-50
2022/09/19 02:27:08;;;;;;;;;;;;;;;9.66;68.07;98945.81;5072872;28;19951;-50
2022/09/19 02:29:35;;;;;;;;;;;;;;;9.94;68.46;98942.41;5072695;28;20396;-48
2022/09/19 02:32:02;;;;;;;;;;;;;;;10.11;68.48;98941.13;5072841;28;20382;-51
2022/09/19 02:34:28;;;;;;;;;;;;;;;10.11;67.39;98938.50;5054812;28;20465;-51
2022/09/19 02:37:00;;;;;;;;;;;;;;;9.94;68.01;98943.22;5072763;28;19962;-51
2022/09/19 02:39:29;;;;;;;;;;;;;;;10.19;68.32;98938.34;5072833;28;19916;-50
2022/09/19 02:42:04;;;;;;;;;;;;;;;10.46;68.26;98933.28;5054795;28;20404;-50
2022/09/19 02:44:30;;;;;;;;;;;;;;;10.58;67.53;98928.31;5072742;28;19916;-51
2022/09/19 02:47:08;;;;;;;;;;;;;;;10.64;67.23;98930.16;5072550;28;19965;-50
2022/09/19 02:49:39;;;;;;;;;;;;;;;10.50;66.83;98928.47;5072651;28;20302;-50
2022/09/19 02:52:17;;;;;;;;;;;;;;;10.37;67.01;98930.03;5072578;28;19931;-50
2022/09/19 02:54:48;;;;;;;;;;;;;;;10.20;67.35;98932.13;5054539;28;19921;-51
2022/09/19 02:57:16;;;;;;;;;;;;;;;10.24;67.50;98937.81;5054568;28;19916;-50
2022/09/19 02:59:43;;;;;;;;;;;;;;;10.17;66.87;98936.94;5071993;28;19920;-50
2022/09/19 03:02:16;;;;;;;;;;;;;;;9.98;66.85;98948.91;5054451;28;19967;-50
2022/09/19 03:04:45;;;;;;;;;;;;;;;10.15;67.47;98931.06;5072439;28;19995;-51
2022/09/19 03:07:13;;;;;;;;;;;;;;;10.54;67.16;98943.66;5072267;28;19917;-51
2022/09/19 03:09:47;;;;;;;;;;;;;;;10.96;66.42;98931.31;5072330;28;19927;-51
2022/09/19 03:12:18;;;;;;;;;;;;;;;11.14;65.02;98943.09;5072319;28;19916;-50
2022/09/19 03:14:48;;;;;;;;;;;;;;;11.52;64.76;98937.31;5072242;28;20007;-51
2022/09/19 03:17:16;;;;;;;;;;;;;;;11.66;63.98;98932.91;5072279;28;20302;-51
2022/09/19 03:19:45;;;;;;;;;;;;;;;11.84;63.20;98948.09;5072210;28;20344;-51
2022/09/19 03:22:11;;;;;;;;;;;;;;;11.95;62.98;98932.53;5072153;28;19944;-50
2022/09/19 03:24:37;;;;;;;;;;;;;;;12.12;62.48;98934.75;5037506;28;19963;-51
2022/09/19 03:27:04;;;;;;;;;;;;;;;12.19;61.95;98939.00;5072059;28;20271;-51
2022/09/19 03:29:30;;;;;;;;;;;;;;;12.23;61.32;98930.69;5071920;28;19964;-51
2022/09/19 03:31:55;;;;;;;;;;;;;;;12.15;61.06;98929.06;5072059;28;19958;-50
2022/09/19 03:34:21;;;;;;;;;;;;;;;11.92;60.17;98926.88;5054113;28;19916;-51
2022/09/19 03:36:47;;;;;;;;;;;;;;;11.60;60.60;98927.41;5053987;28;20357;-50
2022/09/19 03:39:13;;;;;;;;;;;;;;;11.56;60.61;98925.41;5072038;28;19924;-51
2022/09/19 03:41:40;;;;;;;;;;;;;;;11.34;59.57;98922.13;5071997;28;19917;-51
2022/09/19 03:44:05;;;;;;;;;;;;;;;10.92;60.50;98924.84;5071986;28;20398;-51
2022/09/19 03:46:31;;;;;;;;;;;;;;;10.96;61.79;98925.25;5071747;28;19923;-51
2022/09/19 03:48:58;;;;;;;;;;;;;;;11.02;61.39;98918.41;5071936;28;19959;-51
2022/09/19 03:51:24;;;;;;;;;;;;;;;11.07;61.98;98927.31;5071934;28;19920;-51
2022/09/19 03:53:49;;;;;;;;;;;;;;;11.20;61.69;98923.91;5072124;28;20416;-51
2022/09/19 03:56:16;;;;;;;;;;;;;;;11.27;61.38;98929.19;5053884;28;19944;-52
2022/09/19 03:58:42;;;;;;;;;;;;;;;10.98;60.94;98933.75;5071889;28;19916;-52
2022/09/19 04:01:08;;;;;;;;;;;;;;;10.87;61.66;98929.88;5071798;28;19927;-50
2022/09/19 04:03:34;;;;;;;;;;;;;;;10.86;60.94;98928.25;5071796;28;20033;-51
2022/09/19 04:06:00;;;;;;;;;;;;;;;10.98;61.85;98928.50;5053605;28;19917;-51
2022/09/19 04:08:26;;;;;;;;;;;;;;;11.23;61.74;98925.31;5053707;28;19916;-51
2022/09/19 04:10:52;;;;;;;;;;;;;;;11.45;60.64;98926.81;5073314;28;19925;-51
2022/09/19 04:13:20;;;;;;;;;;;;;;;11.58;60.27;98936.53;5075605;28;19920;-52
2022/09/19 04:15:46;;;;;;;;;;;;;;;11.49;60.02;98924.56;5075425;28;20457;-51
2022/09/19 04:18:11;;;;;;;;;;;;;;;11.52;60.53;98932.88;5075489;28;20015;-52
2022/09/19 04:20:38;;;;;;;;;;;;;;;11.60;59.93;98926.63;5075419;28;19952;-51
2022/09/19 04:23:03;;;;;;;;;;;;;;;11.50;59.22;98931.47;5075377;28;19917;-51
2022/09/19 04:25:33;;;;;;;;;;;;;;;11.26;59.68;98936.25;5057231;28;19966;-51
2022/09/19 04:28:02;;;;;;;;;;;;;;;11.29;60.42;98942.94;5075487;28;19982;-51
2022/09/19 04:30:27;;;;;;;;;;;;;;;11.31;59.92;98936.47;5035577;28;19939;-51
2022/09/19 04:32:53;;;;;;;;;;;;;;;11.30;59.76;98939.31;5035571;28;19917;-51
2022/09/19 04:35:20;;;;;;;;;;;;;;;10.83;59.65;98941.78;5035230;28;19918;-51
2022/09/19 04:37:45;;;;;;;;;;;;;;;10.59;60.74;98937.81;5035480;28;20019;-51
2022/09/19 04:40:11;;;;;;;;;;;;;;;10.82;60.93;98934.91;5033831;28;20426;-49
2022/09/19 04:42:36;;;;;;;;;;;;;;;11.13;60.69;98942.28;5035109;28;19925;-50
2022/09/19 04:45:03;;;;;;;;;;;;;;;11.28;60.40;98939.50;5033629;28;19917;-51
2022/09/19 04:47:32;;;;;;;;;;;;;;;11.14;59.92;98935.22;5034960;28;19917;-51
2022/09/19 04:49:59;;;;;;;;;;;;;;;10.70;60.12;98939.09;5034997;28;19918;-51
2022/09/19 04:52:26;;;;;;;;;;;;;;;10.41;60.43;98940.16;5033633;28;19917;-51
2022/09/19 04:54:54;;;;;;;;;;;;;;;10.45;61.54;98939.56;5034903;28;19917;-50
2022/09/19 04:57:20;;;;;;;;;;;;;;;10.33;60.95;98947.16;5034863;28;20298;-51
2022/09/19 04:59:45;;;;;;;;;;;;;;;10.36;61.46;98948.56;5033574;28;19917;-51
2022/09/19 05:02:11;;;;;;;;;;;;;;;10.58;61.47;98942.28;5033456;28;19917;-50
2022/09/19 05:04:38;;;;;;;;;;;;;;;10.79;61.30;98946.59;5034741;28;19917;-51
2022/09/19 05:07:03;;;;;;;;;;;;;;;10.94;61.04;98953.53;5034537;28;19924;-51
2022/09/19 05:09:29;;;;;;;;;;;;;;;11.09;60.83;98948.16;5034878;28;19917;-51
2022/09/19 05:11:56;;;;;;;;;;;;;;;11.15;60.36;98950.78;5034542;28;20303;-51
2022/09/19 05:14:22;;;;;;;;;;;;;;;11.24;60.55;98953.22;5034576;28;20303;-49
2022/09/19 05:16:49;;;;;;;;;;;;;;;11.45;60.76;98947.00;5034458;28;19921;-49
2022/09/19 05:19:15;;;;;;;;;;;;;;;11.73;60.18;98950.31;5034633;28;19921;-50
2022/09/19 05:21:41;;;;;;;;;;;;;;;11.86;60.11;98949.50;5033928;28;19943;-51
2022/09/19 05:24:06;;;;;;;;;;;;;;;12.15;59.46;98956.22;5033050;28;19921;-49
2022/09/19 05:26:31;;;;;;;;;;;;;;;12.49;59.01;98951.69;5032911;28;19921;-49
2022/09/19 05:28:57;;;;;;;;;;;;;;;12.68;58.66;98954.50;5040266;28;19947;-49
2022/09/19 05:31:22;;;;;;;;;;;;;;;12.90;58.17;98955.81;5052848;28;19917;-47
2022/09/19 05:33:48;;;;;;;;;;;;;;;12.93;57.53;98957.22;5054054;28;20403;-49
2022/09/19 05:36:13;;;;;;;;;;;;;;;13.09;57.79;98951.47;5054040;28;20297;-49
2022/09/19 05:38:39;;;;;;;;;;;;;;;13.85;56.98;98955.13;5053973;28;19924;-49
2022/09/19 05:41:05;;;;;;;;;;;;;;;14.69;54.89;98947.66;5053912;28;19985;-49
2022/09/19 05:43:31;;;;;;;;;;;;;;;15.37;53.56;98951.91;5053937;28;19916;-50
2022/09/19 05:45:57;;;;;;;;;;;;;;;15.97;51.88;98952.84;5053660;28;19921;-52
2022/09/19 05:48:25;;;;;;;;;;;;;;;16.48;49.98;98953.19;5053854;28;19917;-51
2022/09/19 05:50:52;;;;;;;;;;;;;;;16.78;49.58;98951.22;5053687;28;19928;-51
2022/09/19 05:56:04;;;;;;;;;;;;;;;17.03;48.12;98959.94;5053687;28;20405;-51
2022/09/19 05:58:30;;;;;;;;;;;;;;;16.52;48.45;98957.00;5053680;28;19924;-50
2022/09/19 06:00:55;;;;;;;;;;;;;;;16.16;49.40;98961.50;5053558;28;19916;-49
2022/09/19 06:03:22;;;;;;;;;;;;;;;16.06;49.75;98962.09;5052245;28;20386;-49
2022/09/19 06:05:52;;;;;;;;;;;;;;;15.98;49.62;98962.41;5053274;28;20011;-49
2022/09/19 06:08:21;;;;;;;;;;;;;;;15.98;49.91;98967.72;5053425;28;19982;-50
2022/09/19 06:10:47;;;;;;;;;;;;;;;16.51;49.57;98968.63;5053276;28;20299;-49
2022/09/19 06:13:13;;;;;;;;;;;;;;;17.29;48.60;98972.63;5053360;28;19924;-50
2022/09/19 06:15:39;;;;;;;;;;;;;;;17.75;47.41;98960.16;5053537;28;19927;-50
2022/09/19 06:18:05;;;;;;;;;;;;;;;18.42;46.17;98966.53;5052201;28;20307;-50
2022/09/19 06:20:30;;;;;;;;;;;;;;;18.88;45.04;98959.16;5053193;28;20015;-50
2022/09/19 06:22:56;;;;;;;;;;;;;;;19.19;43.87;98972.03;5051823;28;20006;-50
2022/09/19 06:25:22;;;;;;;;;;;;;;;19.38;43.03;98967.16;5053011;28;19947;-48
2022/09/19 06:27:54;;;;;;;;;;;;;;;19.30;42.62;98957.78;5053014;28;19935;-48
2022/09/19 06:30:19;;;;;;;;;;;;;;;19.43;42.92;98956.56;5051480;28;20063;-48
2022/09/19 06:32:45;;;;;;;;;;;;;;;19.39;41.67;98960.78;5052263;28;20011;-48
2022/09/19 06:35:10;;;;;;;;;;;;;;;19.40;41.83;98951.72;5051494;28;19924;-49
2022/09/19 06:37:35;;;;;;;;;;;;;;;19.60;41.24;98956.44;5051553;28;19917;-46
2022/09/19 06:40:01;;;;;;;;;;;;;;;19.57;40.49;98947.13;5052749;28;20374;-48
2022/09/19 06:42:27;;;;;;;;;;;;;;;19.61;40.43;98950.88;5053055;28;20002;-50
2022/09/19 06:44:53;;;;;;;;;;;;;;;20.09;40.22;98951.81;5052784;28;19917;-47
2022/09/19 06:47:18;;;;;;;;;;;;;;;20.48;39.09;98958.72;5052606;28;19916;-50
2022/09/19 06:49:43;;;;;;;;;;;;;;;20.87;38.00;98947.75;5052668;28;19926;-49
2022/09/19 06:52:09;;;;;;;;;;;;;;;21.40;37.85;98953.75;5052603;28;19920;-48
2022/09/19 06:54:34;;;;;;;;;;;;;;;21.64;36.74;98956.72;5052638;28;19917;-47
2022/09/19 06:57:00;;;;;;;;;;;;;;;22.15;36.44;98950.56;5052539;28;19921;-48
2022/09/19 06:59:25;;;;;;;;;;;;;;;22.47;35.45;98946.78;5051193;28;19964;-48
2022/09/19 07:01:51;;;;;;;;;;;;;;;22.29;35.90;98956.19;5051122;28;19974;-48
2022/09/19 07:04:16;;;;;;;;;;;;;;;22.47;35.93;98939.56;5052469;28;19917;-49
2022/09/19 07:06:42;;;;;;;;;;;;;;;22.58;35.88;98950.22;5052539;28;19917;-49
2022/09/19 07:09:10;;;;;;;;;;;;;;;22.64;34.88;98944.59;5052375;28;20333;-50
2022/09/19 07:11:37;;;;;;;;;;;;;;;22.53;34.76;98949.16;5052351;28;19917;-49
2022/09/19 07:14:03;;;;;;;;;;;;;;;22.56;34.50;98949.69;5052265;28;20370;-49
2022/09/19 07:16:28;;;;;;;;;;;;;;;22.50;34.03;98955.06;5052259;28;19924;-49
2022/09/19 07:18:54;;;;;;;;;;;;;;;22.40;34.46;98948.97;5050972;28;19916;-49
2022/09/19 07:21:19;;;;;;;;;;;;;;;22.57;34.38;98956.66;5052214;28;20448;-48
2022/09/19 07:23:47;;;;;;;;;;;;;;;22.88;34.20;98958.16;5052158;28;20396;-48
2022/09/19 07:26:14;;;;;;;;;;;;;;;23.33;33.42;98952.84;5052049;28;19917;-49
2022/09/19 07:28:39;;;;;;;;;;;;;;;23.62;33.41;98955.59;5051425;28;20345;-49
2022/09/19 07:31:05;;;;;;;;;;;;;;;24.05;32.95;98963.84;5072179;28;19924;-49
2022/09/19 07:33:30;;;;;;;;;;;;;;;24.10;32.63;98953.06;5054178;28;19916;-48
2022/09/19 07:35:56;;;;;;;;;;;;;;;24.37;32.55;98961.66;5054034;28;19927;-49
2022/09/19 07:38:23;;;;;;;;;;;;;;;24.52;32.31;98956.97;5072151;28;19917;-48
2022/09/19 07:40:49;;;;;;;;;;;;;;;24.77;31.74;98952.41;5071949;28;19923;-48
2022/09/19 07:43:16;;;;;;;;;;;;;;;25.28;30.96;98953.63;5054060;28;19970;-50
2022/09/19 07:45:48;;;;;;;;;;;;;;;25.58;30.90;98954.28;5075158;28;19916;-50
2022/09/19 07:48:15;;;;;;;;;;;;;;;25.55;30.26;98955.63;5058178;28;19917;-47
2022/09/19 07:50:41;;;;;;;;;;;;;;;25.19;30.84;98956.13;5075913;28;19924;-49
2022/09/19 07:53:10;;;;;;;;;;;;;;;25.35;30.90;98951.34;5076006;28;19920;-50
2022/09/19 07:55:35;;;;;;;;;;;;;;;26.02;30.27;98959.22;5057945;28;19924;-49
2022/09/19 07:58:03;;;;;;;;;;;;;;;26.78;29.63;98955.38;5075922;28;19916;-48
2022/09/19 08:00:30;;;;;;;;;;;;;;;27.67;28.83;98951.28;5075826;28;19923;-48
2022/09/19 08:03:06;;;;;;;;;;;;;;;28.46;28.50;98953.31;5075774;28;19916;-50
2022/09/19 08:05:34;;;;;;;;;;;;;;;29.08;27.15;98946.16;5075753;28;19931;-50
2022/09/19 08:08:00;;;;;;;;;;;;;;;29.31;26.04;98954.94;5075698;28;19916;-47
2022/09/19 08:10:25;;;;;;;;;;;;;;;29.55;25.99;98953.66;5075672;28;20011;-50
2022/09/19 08:12:51;;;;;;;;;;;;;;;29.79;25.26;98953.97;5075556;28;20481;-48
2022/09/19 08:15:17;;;;;;;;;;;;;;;30.18;25.79;98956.72;5057612;28;19917;-50
2022/09/19 08:17:53;;;;;;;;;;;;;;;30.52;24.38;98961.25;5075444;28;19917;-48
2022/09/19 08:20:19;;;;;;;;;;;;;;;30.66;24.14;98958.31;5057510;28;19920;-48
2022/09/19 08:22:45;;;;;;;;;;;;;;;30.64;23.63;98961.34;5075335;28;19916;-50
2022/09/19 08:25:11;;;;;;;;;;;;;;;30.09;23.55;98958.69;5075255;28;20313;-50
2022/09/19 08:27:37;;;;;;;;;;;;;;;30.01;23.92;98960.31;5075306;28;20390;-50
2022/09/19 08:30:03;;;;;;;;;;;;;;;30.45;23.64;98960.97;5074836;28;19943;-49
2022/09/19 08:32:28;;;;;;;;;;;;;;;30.82;23.39;98955.81;5075209;28;20394;-49
2022/09/19 08:34:54;;;;;;;;;;;;;;;31.26;22.93;98959.84;5075150;28;19946;-49
2022/09/19 08:37:20;;;;;;;;;;;;;;;31.59;21.93;98955.59;5075109;28;19916;-48
2022/09/19 08:40:15;;;;;;;;;;;;;;;31.60;22.26;98957.97;5075287;28;19923;-47
2022/09/19 08:42:36;;;;;;;;;;;;;;;32.07;22.45;98956.88;5074857;28;19916;-48
2022/09/19 08:45:23;;;;;;;;;;;;;;;32.19;21.84;98962.31;5074996;28;19922;-47
2022/09/19 08:47:49;;;;;;;;;;;;;;;32.30;21.10;98968.13;5043937;28;19916;-48
2022/09/19 08:50:18;;;;;;;;;;;;;;;32.31;20.28;98963.50;5074911;28;19924;-48
2022/09/19 08:52:45;;;;;;;;;;;;;;;32.18;20.53;98957.25;5056899;28;19916;-47
2022/09/19 08:55:15;;;;;;;;;;;;;;;31.95;20.67;98970.41;5074760;28;20045;-49
2022/09/19 08:58:07;;;;;;;;;;;;;;;31.92;20.31;98960.25;5074300;28;19917;-48
2022/09/19 09:00:38;;;;;;;;;;;;;;;32.21;21.03;98957.34;5071542;28;20436;-48
2022/09/19 09:03:05;;;;;;;;;;;;;;;31.80;21.02;98969.91;5074795;28;19917;-48
2022/09/19 09:05:36;;;;;;;;;;;;;;;30.93;21.94;98964.38;5056601;28;19916;-48
2022/09/19 09:08:02;;;;;;;;;;;;;;;31.02;22.04;98970.56;5056638;28;20449;-48
2022/09/19 09:10:43;;;;;;;;;;;;;;;31.13;22.19;98977.19;5074532;28;20015;-48
2022/09/19 09:13:15;;;;;;;;;;;;;;;31.38;22.11;98967.25;5074527;28;20290;-48
2022/09/19 09:16:03;;;;;;;;;;;;;;;31.49;21.32;98970.34;5074690;28;20279;-49
2022/09/19 09:18:30;;;;;;;;;;;;;;;31.45;21.53;98969.44;5064657;28;20058;-48
2022/09/19 09:21:03;;;;;;;;;;;;;;;31.37;21.93;98967.56;5074287;28;19916;-49
2022/09/19 09:23:33;;;;;;;;;;;;;;;31.29;22.28;98974.69;5074244;28;19916;-49
2022/09/19 09:26:06;;;;;;;;;;;;;;;31.21;22.57;98967.38;5074583;28;19923;-48
2022/09/19 09:28:38;;;;;;;;;;;;;;;31.49;21.90;98964.94;5074228;28;20394;-48
2022/09/19 09:31:24;;;;;;;;;;;;;;;31.60;22.26;98960.69;5074064;28;19924;-48
2022/09/19 09:33:52;;;;;;;;;;;;;;;32.04;22.03;98955.66;5074148;28;19924;-49
2022/09/19 09:36:23;;;;;;;;;;;;;;;32.24;21.77;98950.47;5056112;28;19974;-48
2022/09/19 09:39:12;;;;;;;;;;;;;;;32.71;21.31;98951.97;5074253;28;19966;-49
2022/09/19 09:41:50;;;;;;;;;;;;;;;33.16;21.03;98943.63;5047870;28;19916;-48
2022/09/19 09:44:16;;;;;;;;;;;;;;;33.79;20.26;98944.97;5073875;28;20013;-47
2022/09/19 09:46:44;;;;;;;;;;;;;;;33.96;19.98;98947.34;5073702;28;19991;-48
2022/09/19 09:49:12;;;;;;;;;;;;;;;34.02;19.81;98943.22;5073845;28;19966;-48
2022/09/19 09:51:39;;;;;;;;;;;;;;;33.97;19.76;98935.34;5073722;28;19921;-48
2022/09/19 09:54:04;;;;;;;;;;;;;;;33.90;19.14;98932.41;5073763;28;20294;-48
2022/09/19 09:56:49;;;;;;;;;;;;;;;34.01;19.02;98935.44;5055732;28;19923;-48
2022/09/19 10:03:34;;;;;;;;;;;;;;;34.05;19.15;98927.31;5073675;28;20401;-48
2022/09/19 10:04:54;;;;;;;;;;;;;;;33.82;18.72;98923.28;5073826;28;19924;-48
2022/09/19 10:07:22;;;;;;;;;;;;;;;34.04;18.62;98921.09;5072839;28;19920;-47
2022/09/19 10:09:49;;;;;;;;;;;;;;;33.80;18.37;98922.03;5072850;28;19920;-50
2022/09/19 10:12:21;;;;;;;;;;;;;;;33.47;18.77;98923.09;5073545;28;20302;-49
2022/09/19 10:14:47;;;;;;;;;;;;;;;33.26;18.67;98912.41;5073205;28;20041;-49
2022/09/19 10:17:19;;;;;;;;;;;;;;;32.76;18.86;98922.63;5055208;28;19935;-49
2022/09/19 10:19:46;;;;;;;;;;;;;;;32.60;18.59;98921.75;5073188;28;19948;-49
2022/09/19 10:22:16;;;;;;;;;;;;;;;32.38;19.23;98923.75;5073139;28;19917;-49
2022/09/19 10:24:42;;;;;;;;;;;;;;;32.59;19.16;98922.88;5073031;28;19969;-49
2022/09/19 10:27:23;;;;;;;;;;;;;;;32.97;19.28;98921.69;5054994;28;19920;-49
2022/09/19 10:29:59;;;;;;;;;;;;;;;33.79;19.05;98915.81;5072885;28;19920;-48
2022/09/19 10:32:38;;;;;;;;;;;;;;;33.78;18.58;98914.22;5073029;28;20003;-49
2022/09/19 10:35:25;;;;;;;;;;;;;;;32.29;19.07;98920.34;5055012;28;19939;-49
2022/09/19 10:38:15;;;;;;;;;;;;;;;32.36;19.53;98912.44;5072854;28;20003;-49
2022/09/19 10:40:56;;;;;;;;;;;;;;;32.35;18.57;98910.84;5072738;28;19916;-48
2022/09/19 10:43:26;;;;;;;;;;;;;;;32.05;19.06;98915.69;5072719;28;19917;-49
2022/09/19 10:45:51;;;;;;;;;;;;;;;31.92;19.01;98914.88;5072504;28;19916;-49
2022/09/19 10:48:22;;;;;;;;;;;;;;;32.11;18.66;98910.84;5072685;28;19927;-49
2022/09/19 10:50:50;;;;;;;;;;;;;;;32.28;18.64;98909.81;5072660;28;20321;-48
2022/09/19 10:53:22;;;;;;;;;;;;;;;32.13;18.22;98912.09;5072537;28;19920;-48
2022/09/19 10:55:48;;;;;;;;;;;;;;;31.90;18.42;98914.41;5072584;28;20386;-49
2022/09/19 10:58:22;;;;;;;;;;;;;;;32.16;18.57;98916.06;5072509;28;19917;-49
2022/09/19 11:00:54;;;;;;;;;;;;;;;32.53;18.34;98908.69;5072420;28;19921;-48
2022/09/19 11:03:31;;;;;;;;;;;;;;;32.24;18.28;98917.88;5072393;28;19970;-49
2022/09/19 11:06:03;;;;;;;;;;;;;;;31.89;17.96;98918.25;5054406;28;19939;-49
2022/09/19 11:08:30;;;;;;;;;;;;;;;31.56;18.21;98912.88;5054427;28;20447;-49
2022/09/19 11:10:56;;;;;;;;;;;;;;;31.51;18.76;98907.63;5072341;28;19963;-49
2022/09/19 11:13:22;;;;;;;;;;;;;;;31.34;18.71;98912.06;5054377;28;19969;-48
2022/09/19 11:16:06;;;;;;;;;;;;;;;31.28;19.24;98915.34;5072159;28;19920;-47
2022/09/19 11:19:07;;;;;;;;;;;;;;;31.57;18.98;98909.84;5054196;28;20314;-48
2022/09/19 11:21:45;;;;;;;;;;;;;;;31.20;19.39;98901.50;5010267;28;19928;-49
2022/09/19 11:24:13;;;;;;;;;;;;;;;30.93;19.32;98915.59;5010316;28;19918;-47
2022/09/19 11:27:11;;;;;;;;;;;;;;;31.14;19.29;98912.91;5010283;28;20330;-49
2022/09/19 11:29:54;;;;;;;;;;;;;;;31.58;19.26;98910.63;4932445;29;19926;-49
2022/09/19 11:32:26;;;;;;;;;;;;;;;31.65;19.41;98902.69;4932787;29;19946;-47
2022/09/19 11:35:15;;;;;;;;;;;;;;;31.64;19.25;98901.13;4932840;29;19923;-49
2022/09/19 11:37:53;;;;;;;;;;;;;;;30.97;19.12;98913.81;4925003;29;19926;-49
2022/09/19 11:40:25;;;;;;;;;;;;;;;30.81;19.21;98908.97;4932654;29;19919;-48
2022/09/19 11:43:12;;;;;;;;;;;;;;;31.06;19.60;98899.06;4932788;29;20010;-49
2022/09/19 11:45:59;;;;;;;;;;;;;;;31.74;18.92;98897.19;4932577;29;19919;-49
2022/09/19 11:48:31;;;;;;;;;;;;;;;31.63;18.57;98889.50;4932790;29;20381;-48
2022/09/19 11:51:05;;;;;;;;;;;;;;;31.23;19.37;98897.31;4932593;29;19941;-50
2022/09/19 11:53:38;;;;;;;;;;;;;;;31.09;19.69;98889.50;4932681;29;20320;-49
2022/09/19 11:56:17;;;;;;;;;;;;;;;31.24;19.81;98893.50;4963422;28;19917;-50
2022/09/19 11:59:18;;;;;;;;;;;;;;;31.22;19.43;98882.97;4974175;28;19969;-48
2022/09/19 12:01:55;;;;;;;;;;;;;;;31.10;19.50;98879.44;4970767;28;19918;-48
2022/09/19 12:04:26;;;;;;;;;;;;;;;30.71;19.96;98882.25;4973604;28;19972;-49
2022/09/19 12:07:03;;;;;;;;;;;;;;;30.43;20.17;98887.38;4990303;28;19918;-47
2022/09/19 12:09:37;;;;;;;;;;;;;;;30.40;20.35;98893.44;4990396;28;19965;-47
2022/09/19 12:12:13;;;;;;;;;;;;;;;30.06;20.30;98885.13;4974090;28;19984;-48
2022/09/19 12:14:57;;;;;;;;;;;;;;;29.96;20.73;98888.22;4990432;28;19921;-49
2022/09/19 12:17:27;;;;;;;;;;;;;;;29.98;20.86;98871.63;4990238;28;19922;-48
2022/09/19 12:20:07;;;;;;;;;;;;;;;29.89;21.20;98877.06;4990425;28;20396;-49
2022/09/19 12:22:33;;;;;;;;;;;;;;;29.94;21.58;98874.19;4990421;28;20015;-49
2022/09/19 12:25:05;;;;;;;;;;;;;;;30.13;21.15;98868.38;4990348;28;20411;-47
2022/09/19 12:27:31;;;;;;;;;;;;;;;30.11;21.15;98869.84;4990315;28;19918;-49
2022/09/19 12:30:11;;;;;;;;;;;;;;;30.06;21.21;98865.38;4989906;28;20503;-48
2022/09/19 12:32:44;;;;;;;;;;;;;;;29.71;21.41;98870.09;4992968;28;20037;-49
2022/09/19 12:35:17;;;;;;;;;;;;;;;29.52;21.71;98867.75;5010935;28;19920;-47
2022/09/19 12:37:49;;;;;;;;;;;;;;;29.18;21.98;98872.91;5055444;28;20401;-47
2022/09/19 12:40:14;;;;;;;;;;;;;;;28.58;22.61;98862.84;5055111;28;19924;-46
2022/09/19 12:42:44;;;;;;;;;;;;;;;28.25;23.26;98869.41;5055080;28;19917;-47
2022/09/19 12:45:13;;;;;;;;;;;;;;;28.28;23.41;98876.06;5055005;28;19924;-48
2022/09/19 12:47:38;;;;;;;;;;;;;;;28.17;23.35;98870.16;5053589;28;19925;-48
2022/09/19 12:50:15;;;;;;;;;;;;;;;28.13;23.78;98873.78;5055238;28;19917;-47
2022/09/19 12:52:44;;;;;;;;;;;;;;;28.14;23.65;98861.91;5055180;28;20368;-47
2022/09/19 12:55:16;;;;;;;;;;;;;;;27.87;23.97;98863.72;5054773;28;19921;-47
2022/09/19 12:57:55;;;;;;;;;;;;;;;27.91;23.91;98880.84;5054778;28;20357;-49
2022/09/19 13:00:21;;;;;;;;;;;;;;;27.77;24.48;98866.63;5054954;28;19917;-49
2022/09/19 13:02:46;;;;;;;;;;;;;;;27.52;24.72;98868.88;5054703;28;19924;-49
2022/09/19 13:05:13;;;;;;;;;;;;;;;27.26;24.98;98861.41;5054695;28;19917;-49
2022/09/19 13:07:45;;;;;;;;;;;;;;;26.42;25.74;98878.84;5053300;28;19932;-48
2022/09/19 13:10:10;;;;;;;;;;;;;;;26.22;26.81;98873.81;5053279;28;19923;-48